Terminal Aerodrome Forecast
Issued by NWS Sioux Falls, SD

Home | Current Version | Previous Version | Text Only | Print | Product List | Glossary On
Versions: 1 2 3 4 5 6 7 8 9 10 11 12 13 14 15 16 17
453
FTUS43 KFSD 221737
TAFFSD
TAF
KFSD 221737Z 2218/2318 27009KT P6SM FEW030 BKN110
     FM221900 30011KT P6SM VCSH BKN035
     FM222200 33012KT P6SM VCTS BKN035CB
     FM230000 35009KT P6SM VCSH BKN045
     FM230300 33006KT P6SM SCT040 BKN150
     FM231200 32008KT 6SM -SHRA BKN015 OVC040
     FM231600 34011KT P6SM -SHRA OVC020=

USA.gov is the U.S. government's official web portal to all federal, state and local government web resources and services.